Time;durP1;ratioP1;P1;durP2;ratioP2;P2;SDS_P1;SDS_P2;PMS_P1;PMS_P2;Temp;Humidity;BMP_temperature;BMP_pressure;BME280_temperature;BME280_humidity;BME280_pressure;Samples;Min_cycle;Max_cycle;Signal;HPM_P1;HPM_P2
2024/01/01 00:00:29;;;;;;;19.50;13.90;;;;;;;;;;103712;1291;545126;-73
2024/01/01 00:04:06;;;;;;;18.40;13.40;;;;;;;;;;103825;1301;545126;-70
2024/01/01 00:07:45;;;;;;;19.40;13.30;;;;;;;;;;103666;1295;544921;-71
2024/01/01 00:11:21;;;;;;;20.40;14.50;;;;;;;;;;103893;1295;544796;-72
2024/01/01 00:14:58;;;;;;;49.10;28.20;;;;;;;;;;103991;1289;544942;-71
2024/01/01 00:18:36;;;;;;;55.10;29.10;;;;;;;;;;103773;1292;545056;-71
2024/01/01 00:22:13;;;;;;;36.40;19.00;;;;;;;;;;103805;1290;544881;-71
2024/01/01 00:25:50;;;;;;;25.30;14.90;;;;;;;;;;104277;1286;544984;-71
2024/01/01 00:29:28;;;;;;;22.60;13.70;;;;;;;;;;103938;1289;544769;-71
2024/01/01 00:33:02;;;;;;;23.20;14.50;;;;;;;;;;103940;1294;545343;-71
2024/01/01 00:36:39;;;;;;;24.00;15.40;;;;;;;;;;103905;1298;544959;-72
2024/01/01 00:40:20;;;;;;;23.60;15.40;;;;;;;;;;103596;1291;544926;-72
2024/01/01 00:43:58;;;;;;;22.50;14.90;;;;;;;;;;103714;1302;544836;-71
2024/01/01 00:47:32;;;;;;;22.10;14.90;;;;;;;;;;103956;1289;544945;-72
2024/01/01 00:51:13;;;;;;;20.10;14.30;;;;;;;;;;103711;1291;544906;-71
2024/01/01 00:54:51;;;;;;;19.50;13.90;;;;;;;;;;103911;1289;545048;-70
2024/01/01 00:58:28;;;;;;;21.50;15.30;;;;;;;;;;103973;1289;544666;-71
2024/01/01 01:02:06;;;;;;;20.70;15.10;;;;;;;;;;103781;1295;544841;-71
2024/01/01 01:05:49;;;;;;;21.00;15.00;;;;;;;;;;103962;1289;544984;-73
2024/01/01 01:09:21;;;;;;;20.40;13.30;;;;;;;;;;103871;1291;545302;-71
2024/01/01 01:12:54;;;;;;;20.60;11.90;;;;;;;;;;103985;1288;546205;-73
2024/01/01 01:16:35;;;;;;;20.60;13.00;;;;;;;;;;103871;1292;545617;-72
2024/01/01 01:20:13;;;;;;;24.20;15.30;;;;;;;;;;104076;1289;545519;-72
2024/01/01 01:23:50;;;;;;;27.60;16.50;;;;;;;;;;104067;1301;546045;-71
2024/01/01 01:27:28;;;;;;;27.70;15.40;;;;;;;;;;103716;1295;545485;-71
2024/01/01 01:31:05;;;;;;;30.00;17.70;;;;;;;;;;104060;1289;545391;-72
2024/01/01 01:34:42;;;;;;;26.10;15.60;;;;;;;;;;103790;1302;545036;-71
2024/01/01 01:38:21;;;;;;;22.90;15.50;;;;;;;;;;103840;1292;544915;-71
2024/01/01 01:41:58;;;;;;;24.00;14.70;;;;;;;;;;103786;1289;545552;-71
2024/01/01 01:45:35;;;;;;;20.50;13.50;;;;;;;;;;103871;1289;545481;-71
2024/01/01 01:49:13;;;;;;;16.90;10.90;;;;;;;;;;103883;1288;544982;-71
2024/01/01 01:52:50;;;;;;;16.70;11.20;;;;;;;;;;103701;1291;546432;-71
2024/01/01 01:56:28;;;;;;;15.00;9.20;;;;;;;;;;104045;1289;545011;-72
2024/01/01 02:00:06;;;;;;;11.50;5.50;;;;;;;;;;103916;1288;545150;-71
2024/01/01 02:03:44;;;;;;;8.10;3.60;;;;;;;;;;103708;1295;544743;-71
2024/01/01 02:07:21;;;;;;;9.30;3.70;;;;;;;;;;103870;1290;544800;-71
2024/01/01 02:10:58;;;;;;;9.20;3.90;;;;;;;;;;103882;1292;545489;-72
2024/01/01 02:14:31;;;;;;;13.50;5.50;;;;;;;;;;103488;1306;544924;-71
2024/01/01 02:18:12;;;;;;;13.80;5.70;;;;;;;;;;103871;1290;546193;-70
2024/01/01 02:21:51;;;;;;;17.50;7.50;;;;;;;;;;103803;1292;544997;-72
2024/01/01 02:25:27;;;;;;;15.30;8.00;;;;;;;;;;103797;1292;545941;-72
2024/01/01 02:29:06;;;;;;;12.40;7.50;;;;;;;;;;103781;1292;545839;-71
2024/01/01 02:32:42;;;;;;;15.50;8.10;;;;;;;;;;103773;1294;544895;-70
2024/01/01 02:36:19;;;;;;;14.90;9.00;;;;;;;;;;103877;1289;546361;-71
2024/01/01 02:40:03;;;;;;;15.90;8.80;;;;;;;;;;103622;1291;544821;-71
2024/01/01 02:43:30;;;;;;;16.70;8.80;;;;;;;;;;103857;1291;544802;-71
2024/01/01 02:47:12;;;;;;;15.90;9.40;;;;;;;;;;103709;1291;544781;-72
2024/01/01 02:50:49;;;;;;;14.20;8.60;;;;;;;;;;103922;1292;545286;-72
2024/01/01 02:54:27;;;;;;;16.10;9.40;;;;;;;;;;103934;1296;545360;-71
2024/01/01 02:58:05;;;;;;;15.30;9.20;;;;;;;;;;103858;1289;545579;-71
2024/01/01 03:01:41;;;;;;;14.80;8.60;;;;;;;;;;104596;1282;545457;-71
2024/01/01 03:05:22;;;;;;;14.70;9.50;;;;;;;;;;104656;1283;544901;-71
2024/01/01 03:08:57;;;;;;;16.00;9.90;;;;;;;;;;103993;1289;544823;-70
2024/01/01 03:12:30;;;;;;;18.70;11.10;;;;;;;;;;103903;1289;545755;-71
2024/01/01 03:16:13;;;;;;;21.10;11.90;;;;;;;;;;104093;1286;545120;-71
2024/01/01 03:19:45;;;;;;;15.60;9.30;;;;;;;;;;103756;1291;545689;-71
2024/01/01 03:23:27;;;;;;;12.30;7.20;;;;;;;;;;103702;1291;545208;-72
2024/01/01 03:27:04;;;;;;;12.60;7.10;;;;;;;;;;103875;1289;544748;-71
2024/01/01 03:30:42;;;;;;;15.50;9.20;;;;;;;;;;103783;1295;545713;-71
2024/01/01 03:34:19;;;;;;;17.90;10.80;;;;;;;;;;103816;1292;544853;-71
2024/01/01 03:37:57;;;;;;;22.10;12.00;;;;;;;;;;103783;1290;545731;-71
2024/01/01 03:41:34;;;;;;;19.50;10.40;;;;;;;;;;103979;1289;545514;-71
2024/01/01 03:45:12;;;;;;;19.70;10.80;;;;;;;;;;104123;1289;545212;-70
2024/01/01 03:48:49;;;;;;;18.80;10.50;;;;;;;;;;103757;1288;544957;-72
2024/01/01 03:52:30;;;;;;;17.40;9.90;;;;;;;;;;103568;1292;545613;-73
2024/01/01 03:56:04;;;;;;;18.70;10.90;;;;;;;;;;103796;1292;545197;-71
2024/01/01 03:59:41;;;;;;;18.60;10.40;;;;;;;;;;103746;1289;544787;-72
2024/01/01 04:03:19;;;;;;;15.50;8.80;;;;;;;;;;103793;1289;544751;-72
2024/01/01 04:06:56;;;;;;;16.40;9.00;;;;;;;;;;103745;1291;544959;-72
2024/01/01 04:10:33;;;;;;;14.90;9.00;;;;;;;;;;103810;1295;544788;-71
2024/01/01 04:14:11;;;;;;;17.60;10.10;;;;;;;;;;103827;1294;544917;-72
2024/01/01 04:17:48;;;;;;;15.20;9.00;;;;;;;;;;103747;1295;545556;-72
2024/01/01 04:21:26;;;;;;;13.90;7.40;;;;;;;;;;103542;1295;545551;-71
2024/01/01 04:24:59;;;;;;;12.00;6.80;;;;;;;;;;103899;1302;544728;-73
2024/01/01 04:28:41;;;;;;;14.10;7.90;;;;;;;;;;103792;1294;544805;-71
2024/01/01 04:32:18;;;;;;;15.70;8.20;;;;;;;;;;103665;1290;545467;-72
2024/01/01 04:35:56;;;;;;;15.60;9.00;;;;;;;;;;103873;1295;545159;-72
2024/01/01 04:39:33;;;;;;;18.80;9.90;;;;;;;;;;103824;1290;546141;-72
2024/01/01 04:43:11;;;;;;;17.60;9.60;;;;;;;;;;103705;1290;546207;-71
2024/01/01 04:46:48;;;;;;;20.90;11.10;;;;;;;;;;103731;1289;544785;-73
2024/01/01 04:50:25;;;;;;;23.10;11.90;;;;;;;;;;103707;1292;545480;-71
2024/01/01 04:54:03;;;;;;;16.70;8.40;;;;;;;;;;103621;1292;545134;-71
2024/01/01 04:57:40;;;;;;;13.10;6.80;;;;;;;;;;103968;1289;544971;-72
2024/01/01 05:01:18;;;;;;;12.30;6.10;;;;;;;;;;103717;1295;545552;-73
2024/01/01 05:04:56;;;;;;;10.80;5.30;;;;;;;;;;103729;1291;544825;-73
2024/01/01 05:08:33;;;;;;;11.10;5.50;;;;;;;;;;104023;1290;544747;-71
2024/01/01 05:12:14;;;;;;;10.30;5.50;;;;;;;;;;103552;1292;545101;-70
2024/01/01 05:15:44;;;;;;;12.40;6.40;;;;;;;;;;103729;1295;544804;-71
2024/01/01 05:19:26;;;;;;;11.20;5.90;;;;;;;;;;103778;1292;545053;-71
2024/01/01 05:23:03;;;;;;;11.90;5.80;;;;;;;;;;103791;1292;545089;-71
2024/01/01 05:26:36;;;;;;;13.00;6.20;;;;;;;;;;103765;1295;544805;-71
2024/01/01 05:30:18;;;;;;;14.80;6.60;;;;;;;;;;104140;1288;544822;-71
2024/01/01 05:33:55;;;;;;;14.40;6.90;;;;;;;;;;103802;1291;544725;-70
2024/01/01 05:37:33;;;;;;;14.00;7.30;;;;;;;;;;103835;1292;544777;-72
2024/01/01 05:41:11;;;;;;;18.40;7.70;;;;;;;;;;103860;1288;545539;-72
2024/01/01 05:44:48;;;;;;;14.70;7.30;;;;;;;;;;103724;1290;545496;-72
2024/01/01 05:48:25;;;;;;;15.20;7.90;;;;;;;;;;104623;1285;545644;-71
2024/01/01 05:52:03;;;;;;;14.70;8.00;;;;;;;;;;103798;1290;544805;-71
2024/01/01 05:55:36;;;;;;;14.30;8.30;;;;;;;;;;103880;1288;545433;-73
2024/01/01 05:59:20;;;;;;;15.80;9.10;;;;;;;;;;103858;1288;546364;-72
2024/01/01 06:02:55;;;;;;;13.90;8.40;;;;;;;;;;103701;1291;544918;-72
2024/01/01 06:06:32;;;;;;;16.50;8.40;;;;;;;;;;103787;1289;545837;-72
2024/01/01 06:10:10;;;;;;;12.30;7.40;;;;;;;;;;103771;1290;545719;-72
2024/01/01 06:13:47;;;;;;;13.90;8.30;;;;;;;;;;104430;1289;546509;-71
2024/01/01 06:17:25;;;;;;;15.10;8.90;;;;;;;;;;104588;1291;545958;-69
2024/01/01 06:21:02;;;;;;;14.90;9.30;;;;;;;;;;104887;1289;545055;-70
2024/01/01 06:24:39;;;;;;;14.40;9.20;;;;;;;;;;104768;1289;545168;-71
2024/01/01 06:28:18;;;;;;;23.20;12.50;;;;;;;;;;104693;1295;545955;-71
2024/01/01 06:31:55;;;;;;;17.10;9.70;;;;;;;;;;104746;1291;545416;-71
2024/01/01 06:35:32;;;;;;;19.20;10.10;;;;;;;;;;104808;1290;545104;-69
2024/01/01 06:39:09;;;;;;;16.30;10.00;;;;;;;;;;104761;1291;544979;-69
2024/01/01 06:42:47;;;;;;;15.60;9.60;;;;;;;;;;105138;1289;544879;-70
2024/01/01 06:46:25;;;;;;;14.20;9.20;;;;;;;;;;104903;1291;544846;-71
2024/01/01 06:50:02;;;;;;;16.30;9.80;;;;;;;;;;104891;1295;545807;-71
2024/01/01 06:53:40;;;;;;;16.40;10.30;;;;;;;;;;103888;1291;545168;-71
2024/01/01 06:57:17;;;;;;;15.40;9.80;;;;;;;;;;103785;1291;545280;-72
2024/01/01 07:00:54;;;;;;;17.10;10.50;;;;;;;;;;103779;1291;544923;-72
2024/01/01 07:04:31;;;;;;;15.60;9.70;;;;;;;;;;103813;1291;545144;-72
2024/01/01 07:08:09;;;;;;;16.30;10.40;;;;;;;;;;103723;1292;544863;-72
2024/01/01 07:11:47;;;;;;;16.60;11.00;;;;;;;;;;103919;1289;544774;-72
2024/01/01 07:15:30;;;;;;;19.10;11.90;;;;;;;;;;103615;1293;544996;-72
2024/01/01 07:19:01;;;;;;;16.30;10.80;;;;;;;;;;103847;1292;544979;-71
2024/01/01 07:22:35;;;;;;;15.10;10.40;;;;;;;;;;103819;1289;545522;-71
2024/01/01 07:26:17;;;;;;;17.50;11.10;;;;;;;;;;103891;1289;545128;-73
2024/01/01 07:29:55;;;;;;;18.00;12.40;;;;;;;;;;103511;1291;545166;-73
2024/01/01 07:33:32;;;;;;;22.00;15.90;;;;;;;;;;103914;1289;545014;-71
2024/01/01 07:37:05;;;;;;;21.20;15.10;;;;;;;;;;103643;1291;544988;-71
2024/01/01 07:40:42;;;;;;;20.90;14.80;;;;;;;;;;103761;1298;545165;-73
2024/01/01 07:44:24;;;;;;;20.80;14.20;;;;;;;;;;103698;1289;544870;-71
2024/01/01 07:48:01;;;;;;;20.70;14.30;;;;;;;;;;103757;1295;546060;-73
2024/01/01 07:51:39;;;;;;;18.80;13.30;;;;;;;;;;103743;1295;544843;-71
2024/01/01 07:55:16;;;;;;;20.60;13.20;;;;;;;;;;103698;1292;546398;-71
2024/01/01 07:58:54;;;;;;;19.50;12.50;;;;;;;;;;103769;1292;545919;-72
2024/01/01 08:02:31;;;;;;;20.40;14.00;;;;;;;;;;103651;1290;544964;-72
2024/01/01 08:06:08;;;;;;;19.70;12.90;;;;;;;;;;103521;1292;544801;-72
2024/01/01 08:09:46;;;;;;;19.40;12.10;;;;;;;;;;103629;1289;544887;-71
2024/01/01 08:13:29;;;;;;;17.80;11.80;;;;;;;;;;103475;1292;544889;-71
2024/01/01 08:17:01;;;;;;;18.90;12.60;;;;;;;;;;103677;1291;544785;-72
2024/01/01 08:20:44;;;;;;;20.20;12.70;;;;;;;;;;103529;1292;545031;-71
2024/01/01 08:24:16;;;;;;;24.00;15.20;;;;;;;;;;103778;1289;545518;-71
2024/01/01 08:27:53;;;;;;;21.70;14.20;;;;;;;;;;103552;1295;545897;-71
2024/01/01 08:31:31;;;;;;;20.40;13.80;;;;;;;;;;104016;1289;545161;-73
2024/01/01 08:35:08;;;;;;;20.50;13.30;;;;;;;;;;103637;1291;544947;-71
2024/01/01 08:38:42;;;;;;;18.40;13.30;;;;;;;;;;104094;1292;545574;-71
2024/01/01 08:42:23;;;;;;;21.70;14.80;;;;;;;;;;103719;1289;545029;-71
2024/01/01 08:46:01;;;;;;;23.40;15.90;;;;;;;;;;103787;1291;545445;-71
2024/01/01 08:49:38;;;;;;;25.00;16.80;;;;;;;;;;103623;1291;545154;-71
2024/01/01 08:53:15;;;;;;;21.20;13.90;;;;;;;;;;103925;1289;545492;-71
2024/01/01 08:56:49;;;;;;;20.70;13.40;;;;;;;;;;103794;1291;544908;-71
2024/01/01 09:00:30;;;;;;;21.50;13.80;;;;;;;;;;103530;1292;544889;-72
2024/01/01 09:04:08;;;;;;;21.60;14.90;;;;;;;;;;103815;1291;544817;-72
2024/01/01 09:07:45;;;;;;;19.10;13.30;;;;;;;;;;103675;1291;545076;-72
2024/01/01 09:11:44;;;;;;;21.50;12.90;;;;;;;;;;103977;1286;545443;-69
2024/01/01 09:15:00;;;;;;;19.20;12.20;;;;;;;;;;104213;1288;545389;-71
2024/01/01 09:18:38;;;;;;;19.20;12.50;;;;;;;;;;103711;1291;544973;-72
2024/01/01 09:22:15;;;;;;;20.70;13.40;;;;;;;;;;103718;1292;544955;-71
2024/01/01 09:25:54;;;;;;;20.00;13.80;;;;;;;;;;103600;1289;544967;-69
2024/01/01 09:29:30;;;;;;;18.50;11.70;;;;;;;;;;103877;1294;545167;-71
2024/01/01 09:33:08;;;;;;;18.30;11.70;;;;;;;;;;103765;1296;545837;-69
2024/01/01 09:36:45;;;;;;;18.10;11.90;;;;;;;;;;103690;1293;545015;-71
2024/01/01 09:40:23;;;;;;;19.50;13.00;;;;;;;;;;103731;1292;545542;-69
2024/01/01 09:44:01;;;;;;;18.50;12.90;;;;;;;;;;103781;1292;544995;-70
2024/01/01 09:47:39;;;;;;;20.10;13.20;;;;;;;;;;103569;1288;545057;-71
2024/01/01 09:51:14;;;;;;;20.60;13.90;;;;;;;;;;103691;1295;545482;-69
2024/01/01 09:54:52;;;;;;;24.00;16.50;;;;;;;;;;103779;1291;544786;-69
2024/01/01 09:58:42;;;;;;;26.90;19.60;;;;;;;;;;104008;1289;545392;-69
2024/01/01 10:02:09;;;;;;;27.60;18.80;;;;;;;;;;104229;1286;545207;-71
2024/01/01 10:05:48;;;;;;;30.60;19.50;;;;;;;;;;103670;1291;544770;-70
2024/01/01 10:09:22;;;;;;;41.40;26.00;;;;;;;;;;103598;1293;545516;-72
2024/01/01 10:13:07;;;;;;;33.40;20.60;;;;;;;;;;103888;1289;546032;-69
2024/01/01 10:16:38;;;;;;;31.80;19.70;;;;;;;;;;104007;1290;545351;-70
2024/01/01 10:20:18;;;;;;;24.40;15.70;;;;;;;;;;103622;1301;545571;-71
2024/01/01 10:23:52;;;;;;;22.20;14.80;;;;;;;;;;103922;1290;545955;-71
2024/01/01 10:27:30;;;;;;;20.70;12.90;;;;;;;;;;103873;1289;544660;-72
2024/01/01 10:31:07;;;;;;;19.20;13.00;;;;;;;;;;103778;1302;546545;-72
2024/01/01 10:34:46;;;;;;;20.40;12.60;;;;;;;;;;103745;1291;545469;-73
2024/01/01 10:38:23;;;;;;;22.30;14.30;;;;;;;;;;103783;1291;545418;-71
2024/01/01 10:42:01;;;;;;;22.00;14.20;;;;;;;;;;103738;1292;544744;-72
2024/01/01 10:45:44;;;;;;;20.90;12.40;;;;;;;;;;103589;1292;545858;-71
2024/01/01 10:49:24;;;;;;;19.80;12.50;;;;;;;;;;103698;1289;545876;-71
2024/01/01 10:53:07;;;;;;;22.80;13.70;;;;;;;;;;103895;1295;545064;-73
2024/01/01 10:56:55;;;;;;;21.60;13.60;;;;;;;;;;104032;1289;545614;-70
2024/01/01 11:00:32;;;;;;;19.30;11.20;;;;;;;;;;103762;1291;545250;-72
2024/01/01 11:04:03;;;;;;;18.10;10.30;;;;;;;;;;103742;1292;544974;-69
2024/01/01 11:07:57;;;;;;;14.40;8.10;;;;;;;;;;103841;1289;544965;-71
2024/01/01 11:11:25;;;;;;;12.20;6.70;;;;;;;;;;103654;1292;546495;-69
2024/01/01 11:14:56;;;;;;;15.30;7.70;;;;;;;;;;103939;1288;544832;-70
2024/01/01 11:18:33;;;;;;;18.30;10.00;;;;;;;;;;103792;1291;544847;-71
2024/01/01 11:22:39;;;;;;;18.30;10.80;;;;;;;;;;103757;1295;545572;-72
2024/01/01 11:25:47;;;;;;;14.80;8.70;;;;;;;;;;103735;1295;545249;-69
2024/01/01 11:29:29;;;;;;;14.50;7.80;;;;;;;;;;104259;1296;544843;-70
2024/01/01 11:33:04;;;;;;;11.20;6.20;;;;;;;;;;103578;1292;545680;-69
2024/01/01 11:36:41;;;;;;;9.30;5.20;;;;;;;;;;103891;1302;545078;-69
2024/01/01 11:40:20;;;;;;;9.80;5.00;;;;;;;;;;103885;1292;544960;-71
2024/01/01 11:44:07;;;;;;;9.20;4.50;;;;;;;;;;103963;1289;545042;-72
2024/01/01 11:47:29;;;;;;;13.30;8.30;;;;;;;;;;103879;1302;545054;-71
2024/01/01 11:51:10;;;;;;;11.30;5.60;;;;;;;;;;103913;1289;545514;-74
2024/01/01 11:54:48;;;;;;;11.80;6.50;;;;;;;;;;103645;1291;544895;-71
2024/01/01 11:58:24;;;;;;;10.20;4.70;;;;;;;;;;103820;1289;545617;-72
2024/01/01 12:02:03;;;;;;;8.90;4.50;;;;;;;;;;103803;1289;545127;-73
2024/01/01 12:05:41;;;;;;;9.40;4.90;;;;;;;;;;103816;1289;545194;-71
2024/01/01 12:09:18;;;;;;;10.10;4.80;;;;;;;;;;103774;1289;545662;-70
2024/01/01 12:12:58;;;;;;;9.50;4.80;;;;;;;;;;104273;1285;544829;-73
2024/01/01 12:16:38;;;;;;;10.90;4.70;;;;;;;;;;103876;1289;544967;-71
2024/01/01 12:20:06;;;;;;;9.50;4.60;;;;;;;;;;103980;1289;545032;-72
2024/01/01 12:23:48;;;;;;;11.30;6.30;;;;;;;;;;103755;1292;544640;-73
2024/01/01 12:27:28;;;;;;;12.90;6.60;;;;;;;;;;103842;1292;545145;-69
2024/01/01 12:31:01;;;;;;;10.80;5.40;;;;;;;;;;103977;1289;545000;-70
2024/01/01 12:34:38;;;;;;;9.90;5.50;;;;;;;;;;103846;1291;545295;-70
2024/01/01 12:38:20;;;;;;;13.40;6.20;;;;;;;;;;104078;1288;545242;-70
2024/01/01 12:41:57;;;;;;;9.60;5.30;;;;;;;;;;103778;1289;544900;-70
2024/01/01 12:45:35;;;;;;;11.00;5.20;;;;;;;;;;104050;1296;544856;-71
2024/01/01 12:49:11;;;;;;;11.40;5.80;;;;;;;;;;103760;1289;545029;-71
2024/01/01 12:52:49;;;;;;;12.20;6.20;;;;;;;;;;103905;1292;545062;-73
2024/01/01 12:56:27;;;;;;;10.30;5.10;;;;;;;;;;103755;1293;545107;-73
2024/01/01 13:00:06;;;;;;;9.60;5.10;;;;;;;;;;103574;1291;544976;-72
2024/01/01 13:03:46;;;;;;;9.50;4.10;;;;;;;;;;103674;1289;545213;-72
2024/01/01 13:07:19;;;;;;;9.30;3.80;;;;;;;;;;103862;1289;545018;-70
2024/01/01 13:10:59;;;;;;;9.40;4.50;;;;;;;;;;103884;1292;546021;-69
2024/01/01 13:14:36;;;;;;;9.60;3.40;;;;;;;;;;103630;1303;544829;-73
2024/01/01 13:18:12;;;;;;;9.70;2.90;;;;;;;;;;103817;1289;545559;-69
2024/01/01 13:21:49;;;;;;;8.80;2.80;;;;;;;;;;103857;1291;545569;-72
2024/01/01 13:25:32;;;;;;;9.20;3.60;;;;;;;;;;103551;1289;545098;-70
2024/01/01 13:29:04;;;;;;;9.90;3.70;;;;;;;;;;103973;1292;545054;-72
2024/01/01 13:32:43;;;;;;;12.90;5.80;;;;;;;;;;104006;1289;544596;-72
2024/01/01 13:36:19;;;;;;;11.90;5.30;;;;;;;;;;103978;1289;544846;-71
2024/01/01 13:39:52;;;;;;;11.00;4.80;;;;;;;;;;104161;1285;544820;-71
2024/01/01 13:43:37;;;;;;;9.80;3.70;;;;;;;;;;103810;1289;544809;-74
2024/01/01 13:47:11;;;;;;;9.80;3.90;;;;;;;;;;103801;1292;544647;-70
2024/01/01 13:50:49;;;;;;;9.40;3.90;;;;;;;;;;103720;1291;544822;-70
2024/01/01 13:54:26;;;;;;;9.60;4.50;;;;;;;;;;103747;1289;545524;-71
2024/01/01 13:58:04;;;;;;;11.50;5.20;;;;;;;;;;103642;1295;544740;-71
2024/01/01 14:01:41;;;;;;;9.00;4.40;;;;;;;;;;103930;1290;545597;-72
2024/01/01 14:05:19;;;;;;;11.70;4.50;;;;;;;;;;103709;1292;545100;-71
2024/01/01 14:08:56;;;;;;;10.20;4.90;;;;;;;;;;103870;1291;544971;-72
2024/01/01 14:12:34;;;;;;;12.20;4.70;;;;;;;;;;103902;1290;544924;-71
2024/01/01 14:16:17;;;;;;;10.10;4.50;;;;;;;;;;103683;1289;545480;-73
2024/01/01 14:19:49;;;;;;;10.70;4.00;;;;;;;;;;103658;1292;545317;-73
2024/01/01 14:23:26;;;;;;;9.80;4.70;;;;;;;;;;104031;1294;545864;-71
2024/01/01 14:27:07;;;;;;;10.50;4.50;;;;;;;;;;103732;1292;544714;-72
2024/01/01 14:30:41;;;;;;;10.50;5.10;;;;;;;;;;103814;1292;545059;-69
2024/01/01 14:34:22;;;;;;;10.30;4.70;;;;;;;;;;103532;1291;545173;-69
2024/01/01 14:37:56;;;;;;;10.70;5.10;;;;;;;;;;103814;1290;545577;-69
2024/01/01 14:41:34;;;;;;;16.10;9.90;;;;;;;;;;103925;1289;545195;-72
2024/01/01 14:45:14;;;;;;;12.00;7.30;;;;;;;;;;103872;1292;546369;-72
2024/01/01 14:48:48;;;;;;;13.50;7.40;;;;;;;;;;103886;1300;544798;-72
2024/01/01 14:52:30;;;;;;;13.90;7.20;;;;;;;;;;103902;1291;545428;-73
2024/01/01 14:56:07;;;;;;;15.50;7.30;;;;;;;;;;104134;1293;544961;-70
2024/01/01 14:59:44;;;;;;;13.50;5.70;;;;;;;;;;103899;1289;545904;-72
2024/01/01 15:03:22;;;;;;;13.30;6.70;;;;;;;;;;103829;1289;544957;-70
2024/01/01 15:07:05;;;;;;;13.40;7.30;;;;;;;;;;103684;1289;545927;-72
2024/01/01 15:10:33;;;;;;;22.20;13.20;;;;;;;;;;103908;1288;545402;-74
2024/01/01 15:14:14;;;;;;;18.50;11.10;;;;;;;;;;103949;1292;544787;-71
2024/01/01 15:17:52;;;;;;;30.30;18.40;;;;;;;;;;103723;1291;545050;-70
2024/01/01 15:21:30;;;;;;;19.50;13.30;;;;;;;;;;103565;1292;544995;-71
2024/01/01 15:25:07;;;;;;;16.20;9.10;;;;;;;;;;103893;1292;545068;-71
2024/01/01 15:28:41;;;;;;;17.20;10.10;;;;;;;;;;103771;1291;545705;-71
2024/01/01 15:32:22;;;;;;;12.10;7.40;;;;;;;;;;103765;1292;544740;-71
2024/01/01 15:35:59;;;;;;;22.10;17.70;;;;;;;;;;104112;1289;545795;-71
2024/01/01 15:39:38;;;;;;;18.10;14.40;;;;;;;;;;103728;1291;545321;-72
2024/01/01 15:43:14;;;;;;;19.50;11.00;;;;;;;;;;103880;1292;545450;-71
2024/01/01 15:46:51;;;;;;;15.40;8.90;;;;;;;;;;103936;1289;544826;-71
2024/01/01 15:50:30;;;;;;;20.50;11.80;;;;;;;;;;103794;1290;545011;-71
2024/01/01 15:54:06;;;;;;;34.40;19.90;;;;;;;;;;103967;1292;545612;-71
2024/01/01 15:57:44;;;;;;;51.30;28.90;;;;;;;;;;103718;1291;544831;-71
2024/01/01 16:01:22;;;;;;;84.30;43.30;;;;;;;;;;103490;1294;545093;-71
2024/01/01 16:05:01;;;;;;;104.70;53.30;;;;;;;;;;103804;1301;546001;-72
2024/01/01 16:08:34;;;;;;;58.70;31.40;;;;;;;;;;103853;1290;544825;-69
2024/01/01 16:12:25;;;;;;;49.80;27.30;;;;;;;;;;103685;1294;544811;-73
2024/01/01 16:15:56;;;;;;;48.60;27.30;;;;;;;;;;103806;1289;545188;-70
2024/01/01 16:19:30;;;;;;;43.70;22.30;;;;;;;;;;104191;1289;545346;-71
2024/01/01 16:23:08;;;;;;;39.90;20.30;;;;;;;;;;103840;1288;545235;-70
2024/01/01 16:26:48;;;;;;;35.70;16.90;;;;;;;;;;103686;1291;545378;-72
2024/01/01 16:30:22;;;;;;;36.40;17.90;;;;;;;;;;103819;1289;545374;-70
2024/01/01 16:33:59;;;;;;;47.30;21.30;;;;;;;;;;104136;1289;545386;-69
2024/01/01 16:37:38;;;;;;;48.20;22.60;;;;;;;;;;103924;1289;544979;-71
2024/01/01 16:41:15;;;;;;;58.00;31.90;;;;;;;;;;103741;1295;545634;-72
2024/01/01 16:44:52;;;;;;;43.40;20.60;;;;;;;;;;103751;1295;545099;-71
2024/01/01 16:48:30;;;;;;;40.80;18.40;;;;;;;;;;103588;1291;545430;-70
2024/01/01 16:52:08;;;;;;;35.40;17.20;;;;;;;;;;103638;1292;545534;-71
2024/01/01 16:55:49;;;;;;;35.40;18.40;;;;;;;;;;104074;1285;544790;-71
2024/01/01 16:59:23;;;;;;;28.30;15.40;;;;;;;;;;103754;1293;544877;-71
2024/01/01 17:03:00;;;;;;;48.90;23.10;;;;;;;;;;103631;1289;545002;-72
2024/01/01 17:06:33;;;;;;;59.10;26.20;;;;;;;;;;103849;1289;545103;-71
2024/01/01 17:10:15;;;;;;;42.80;19.80;;;;;;;;;;103628;1291;545546;-71
2024/01/01 17:13:52;;;;;;;29.00;14.70;;;;;;;;;;103811;1289;545662;-71
2024/01/01 17:17:30;;;;;;;31.50;16.90;;;;;;;;;;103703;1292;545842;-71
2024/01/01 17:21:03;;;;;;;83.90;45.30;;;;;;;;;;103847;1289;544726;-71
2024/01/01 17:24:45;;;;;;;34.20;18.90;;;;;;;;;;103970;1289;544933;-72
2024/01/01 17:28:22;;;;;;;30.20;15.90;;;;;;;;;;103918;1295;545471;-70
2024/01/01 17:32:03;;;;;;;27.90;16.40;;;;;;;;;;103810;1290;544940;-71
2024/01/01 17:35:37;;;;;;;54.30;27.30;;;;;;;;;;103803;1289;544791;-71
2024/01/01 17:39:14;;;;;;;31.10;18.80;;;;;;;;;;103583;1291;545471;-73
2024/01/01 17:42:54;;;;;;;31.30;21.80;;;;;;;;;;103835;1289;545122;-71
2024/01/01 17:46:31;;;;;;;21.20;12.90;;;;;;;;;;103577;1292;545076;-70
2024/01/01 17:50:07;;;;;;;19.60;11.00;;;;;;;;;;103673;1292;545015;-71
2024/01/01 17:53:44;;;;;;;31.90;16.80;;;;;;;;;;103894;1289;544973;-73
2024/01/01 17:57:22;;;;;;;25.40;14.00;;;;;;;;;;103700;1295;544947;-70
2024/01/01 18:00:59;;;;;;;22.20;12.60;;;;;;;;;;104138;1286;544798;-73
2024/01/01 18:04:36;;;;;;;38.90;20.90;;;;;;;;;;103941;1289;545026;-71
2024/01/01 18:08:14;;;;;;;50.50;26.60;;;;;;;;;;103710;1290;545383;-72
2024/01/01 18:11:51;;;;;;;52.00;25.00;;;;;;;;;;103801;1289;544959;-72
2024/01/01 18:15:29;;;;;;;51.40;27.20;;;;;;;;;;104648;1282;546187;-72
2024/01/01 18:19:06;;;;;;;47.20;24.00;;;;;;;;;;103611;1290;545222;-71
2024/01/01 18:22:44;;;;;;;58.60;33.50;;;;;;;;;;103676;1292;545148;-70
2024/01/01 18:26:21;;;;;;;43.80;23.20;;;;;;;;;;103880;1289;544890;-72
2024/01/01 18:29:59;;;;;;;35.50;18.40;;;;;;;;;;103676;1298;545053;-72
2024/01/01 18:33:36;;;;;;;34.60;20.00;;;;;;;;;;103597;1292;544779;-71
2024/01/01 18:37:14;;;;;;;32.50;18.70;;;;;;;;;;103686;1292;545443;-71
2024/01/01 18:40:50;;;;;;;28.50;17.10;;;;;;;;;;103748;1292;545342;-70
2024/01/01 18:44:28;;;;;;;21.70;12.50;;;;;;;;;;103796;1291;545438;-71
2024/01/01 18:48:06;;;;;;;19.90;11.40;;;;;;;;;;103743;1291;544981;-71
2024/01/01 18:51:44;;;;;;;25.40;13.80;;;;;;;;;;104034;1292;545659;-72
2024/01/01 18:55:17;;;;;;;28.50;15.30;;;;;;;;;;103871;1290;544823;-72
2024/01/01 18:58:58;;;;;;;30.90;15.60;;;;;;;;;;103826;1293;544922;-71
2024/01/01 19:02:36;;;;;;;29.50;15.00;;;;;;;;;;103739;1292;545086;-70
2024/01/01 19:06:14;;;;;;;18.40;9.00;;;;;;;;;;103716;1290;545415;-73
2024/01/01 19:09:50;;;;;;;15.80;8.00;;;;;;;;;;103670;1294;545618;-70
2024/01/01 19:13:28;;;;;;;17.60;7.90;;;;;;;;;;103698;1295;545358;-71
2024/01/01 19:17:06;;;;;;;18.90;11.10;;;;;;;;;;104053;1290;544817;-70
2024/01/01 19:20:43;;;;;;;19.70;8.70;;;;;;;;;;103734;1291;545425;-70
2024/01/01 19:24:26;;;;;;;15.60;7.40;;;;;;;;;;103624;1293;544977;-71
2024/01/01 19:27:58;;;;;;;14.10;7.90;;;;;;;;;;104598;1283;545765;-71
2024/01/01 19:31:39;;;;;;;15.00;8.80;;;;;;;;;;103956;1292;545158;-73
2024/01/01 19:35:09;;;;;;;18.10;9.60;;;;;;;;;;104016;1290;545121;-71
2024/01/01 19:38:50;;;;;;;20.00;10.10;;;;;;;;;;103688;1291;544929;-69
2024/01/01 19:42:28;;;;;;;13.20;6.60;;;;;;;;;;103642;1295;544844;-71
2024/01/01 19:46:06;;;;;;;12.70;5.60;;;;;;;;;;103781;1291;545021;-71
2024/01/01 19:49:43;;;;;;;22.00;10.60;;;;;;;;;;103774;1292;545062;-71
2024/01/01 19:53:21;;;;;;;19.20;9.50;;;;;;;;;;103888;1289;544909;-72
2024/01/01 19:56:58;;;;;;;13.90;6.40;;;;;;;;;;103552;1291;545784;-70
2024/01/01 20:00:37;;;;;;;16.00;7.30;;;;;;;;;;103966;1289;545102;-71
2024/01/01 20:04:13;;;;;;;13.30;6.50;;;;;;;;;;103892;1290;544701;-71
2024/01/01 20:07:46;;;;;;;11.60;6.10;;;;;;;;;;104007;1288;545477;-71
2024/01/01 20:11:28;;;;;;;12.00;6.60;;;;;;;;;;103787;1304;544952;-72
2024/01/01 20:15:07;;;;;;;13.80;6.80;;;;;;;;;;103855;1289;545154;-69
2024/01/01 20:18:43;;;;;;;13.10;7.00;;;;;;;;;;103836;1289;544976;-71
2024/01/01 20:22:20;;;;;;;16.10;8.30;;;;;;;;;;103795;1292;544942;-71
2024/01/01 20:25:58;;;;;;;32.70;14.90;;;;;;;;;;103841;1288;545196;-71
2024/01/01 20:29:35;;;;;;;18.00;7.10;;;;;;;;;;103612;1291;544894;-71
2024/01/01 20:33:18;;;;;;;16.00;7.40;;;;;;;;;;103613;1291;546139;-70
2024/01/01 20:36:50;;;;;;;19.90;7.80;;;;;;;;;;103711;1291;545503;-72